createdAt,value
2022-08-09T00:01:52.549Z,14.27
2022-08-09T00:04:35.068Z,14.16
2022-08-09T00:07:07.718Z,14.15
2022-08-09T00:09:39.618Z,14.22
2022-08-09T00:12:15.554Z,14.23
2022-08-09T00:14:54.456Z,14.27
2022-08-09T00:18:05.273Z,14.28
2022-08-09T00:20:15.513Z,14.17
2022-08-09T00:22:44.853Z,14.16
2022-08-09T00:25:23.182Z,14.19
2022-08-09T00:27:56.967Z,14.14
2022-08-09T00:30:27.059Z,14.10
2022-08-09T00:32:56.137Z,14.18
2022-08-09T00:35:29.635Z,14.14
2022-08-09T00:38:13.079Z,14.11
2022-08-09T00:40:53.120Z,14.11
2022-08-09T00:44:14.505Z,14.05
2022-08-09T00:46:28.357Z,14.02
2022-08-09T00:49:03.986Z,13.97
2022-08-09T00:51:33.833Z,13.96
2022-08-09T00:54:12.001Z,13.92
2022-08-09T00:56:44.960Z,13.89
2022-08-09T00:59:15.356Z,13.89
2022-08-09T01:02:03.249Z,13.87
2022-08-09T01:04:39.092Z,13.85
2022-08-09T01:07:17.499Z,13.85
2022-08-09T01:09:54.279Z,13.80
2022-08-09T01:12:31.235Z,13.80
2022-08-09T01:15:10.066Z,13.80
2022-08-09T01:17:57.590Z,13.79
2022-08-09T01:20:39.257Z,13.76
2022-08-09T01:24:00.701Z,13.76
2022-08-09T01:26:37.008Z,13.74
2022-08-09T01:29:07.650Z,13.82
2022-08-09T01:32:30.960Z,13.87
2022-08-09T01:34:30.334Z,13.88
2022-08-09T01:37:02.323Z,13.93
2022-08-09T01:39:35.693Z,13.90
2022-08-09T01:42:11.111Z,13.90
2022-08-09T01:44:41.406Z,13.88
2022-08-09T01:47:12.564Z,13.93
2022-08-09T01:49:48.767Z,13.94
2022-08-09T01:52:25.284Z,13.99
2022-08-09T01:54:58.461Z,13.97
2022-08-09T01:57:40.225Z,13.99
2022-08-09T02:00:34.641Z,14.04
2022-08-09T02:03:07.627Z,14.05
2022-08-09T02:06:03.380Z,14.07
2022-08-09T02:08:38.751Z,14.01
2022-08-09T02:11:23.707Z,13.95
2022-08-09T02:14:25.520Z,13.91
2022-08-09T02:17:00.157Z,13.89
2022-08-09T02:19:45.848Z,13.88
2022-08-09T02:22:31.832Z,13.88
2022-08-09T02:25:15.124Z,13.86
2022-08-09T02:28:00.652Z,13.90
2022-08-09T02:30:41.546Z,13.89
2022-08-09T02:33:14.522Z,13.92
2022-08-09T02:36:03.350Z,13.92
2022-08-09T02:38:37.791Z,13.98
2022-08-09T02:41:11.707Z,14.01
2022-08-09T02:43:54.814Z,14.01
2022-08-09T02:46:30.879Z,14.06
2022-08-09T02:49:04.481Z,14.05
2022-08-09T02:51:45.956Z,14.07
2022-08-09T02:54:17.899Z,14.11
2022-08-09T02:56:56.861Z,14.07
2022-08-09T02:59:36.267Z,14.06
2022-08-09T03:02:12.173Z,14.05
2022-08-09T03:04:50.602Z,14.06
2022-08-09T03:07:21.497Z,14.06
2022-08-09T03:09:53.931Z,14.09
2022-08-09T03:12:27.538Z,14.12
2022-08-09T03:14:58.665Z,14.17
2022-08-09T03:17:30.732Z,14.19
2022-08-09T03:20:05.166Z,14.19
2022-08-09T03:22:44.618Z,14.21
2022-08-09T03:25:26.159Z,14.29
2022-08-09T03:28:11.266Z,14.36
2022-08-09T03:30:40.988Z,14.42
2022-08-09T03:33:17.806Z,14.41
2022-08-09T03:36:13.314Z,14.43
2022-08-09T03:38:41.663Z,14.46
2022-08-09T03:41:15.247Z,14.51
2022-08-09T03:44:03.402Z,14.58
2022-08-09T03:46:35.007Z,14.61
2022-08-09T03:49:08.695Z,14.65
2022-08-09T03:51:55.455Z,14.61
2022-08-09T03:54:31.368Z,14.63
2022-08-09T03:57:04.317Z,14.65
2022-08-09T03:59:53.326Z,14.70
2022-08-09T04:02:30.356Z,14.75
2022-08-09T04:05:06.283Z,14.81
2022-08-09T04:07:53.436Z,14.91
2022-08-09T04:10:29.536Z,15.04
2022-08-09T04:13:04.014Z,15.07
2022-08-09T04:16:17.590Z,15.05
2022-08-09T04:18:25.159Z,15.01
2022-08-09T04:20:55.781Z,14.89
2022-08-09T04:23:25.739Z,14.87
2022-08-09T04:25:55.909Z,14.94
2022-08-09T04:28:33.005Z,15.00
2022-08-09T04:31:05.922Z,15.05
2022-08-09T04:33:47.219Z,15.21
2022-08-09T04:36:26.101Z,15.42
2022-08-09T04:38:56.477Z,15.59
2022-08-09T04:41:32.408Z,15.59
2022-08-09T04:44:07.275Z,15.50
2022-08-09T04:46:59.486Z,15.39
2022-08-09T04:49:52.837Z,15.39
2022-08-09T04:52:26.557Z,15.51
2022-08-09T04:54:57.433Z,15.74
2022-08-09T04:57:58.469Z,16.03
2022-08-09T05:00:17.221Z,16.31
2022-08-09T05:02:51.963Z,16.15
2022-08-09T05:05:31.477Z,16.06
2022-08-09T05:08:14.019Z,16.08
2022-08-09T05:10:44.549Z,16.05
2022-08-09T05:13:14.422Z,16.05
2022-08-09T05:15:52.332Z,16.17
2022-08-09T05:18:39.559Z,16.22
2022-08-09T05:21:22.739Z,16.15
2022-08-09T05:24:00.031Z,16.14
2022-08-09T05:26:45.612Z,16.29
2022-08-09T05:29:21.186Z,16.44
2022-08-09T05:31:58.458Z,16.41
2022-08-09T05:34:30.223Z,16.42
2022-08-09T05:37:04.993Z,16.24
2022-08-09T05:39:42.695Z,16.26
2022-08-09T05:42:26.275Z,16.33
2022-08-09T05:44:57.581Z,16.40
2022-08-09T05:47:30.361Z,16.47
2022-08-09T05:50:30.248Z,16.47
2022-08-09T05:52:53.289Z,16.22
2022-08-09T05:55:24.898Z,16.14
2022-08-09T05:57:57.183Z,16.23
2022-08-09T06:00:29.159Z,16.23
2022-08-09T06:02:58.977Z,16.13
2022-08-09T06:05:31.244Z,16.12
2022-08-09T06:08:19.735Z,16.26
2022-08-09T06:10:58.241Z,16.32
2022-08-09T06:13:34.153Z,16.35
2022-08-09T06:16:04.937Z,16.29
2022-08-09T06:18:34.718Z,16.30
2022-08-09T06:21:04.573Z,16.51
2022-08-09T06:23:57.249Z,16.65
2022-08-09T06:26:28.461Z,16.73
2022-08-09T06:29:00.230Z,16.53
2022-08-09T06:31:39.221Z,16.43
2022-08-09T06:34:23.470Z,16.41
2022-08-09T06:36:59.381Z,16.41
2022-08-09T06:39:48.450Z,16.50
2022-08-09T06:42:24.871Z,16.71
2022-08-09T06:45:00.092Z,16.77
2022-08-09T06:47:30.265Z,16.80
2022-08-09T06:50:14.574Z,16.78
2022-08-09T06:52:49.102Z,16.88
2022-08-09T06:55:22.448Z,16.96
2022-08-09T06:58:03.370Z,17.05
2022-08-09T07:00:56.190Z,17.00
2022-08-09T07:03:28.495Z,16.83
2022-08-09T07:06:03.534Z,16.68
2022-08-09T07:08:34.386Z,16.55
2022-08-09T07:11:06.098Z,16.50
2022-08-09T07:13:45.328Z,16.28
2022-08-09T07:16:41.058Z,15.91
2022-08-09T07:19:15.747Z,15.67
2022-08-09T07:21:57.287Z,15.51
2022-08-09T07:24:31.808Z,15.43
2022-08-09T07:27:27.109Z,15.50
2022-08-09T07:30:02.533Z,15.32
2022-08-09T07:32:34.405Z,15.37
2022-08-09T07:35:10.004Z,15.42
2022-08-09T07:37:43.770Z,15.34
2022-08-09T07:40:17.292Z,15.32
2022-08-09T07:42:54.633Z,15.27
2022-08-09T07:45:37.829Z,15.35
2022-08-09T07:48:25.359Z,15.43
2022-08-09T07:51:09.246Z,15.30
2022-08-09T07:54:04.438Z,15.28
2022-08-09T07:56:37.000Z,15.27
2022-08-09T07:59:16.031Z,15.27
2022-08-09T08:01:56.592Z,15.04
2022-08-09T08:04:32.189Z,15.12
2022-08-09T08:07:15.442Z,15.10
2022-08-09T08:09:54.907Z,15.05
2022-08-09T08:12:42.950Z,15.10
2022-08-09T08:15:16.791Z,15.21
2022-08-09T08:17:55.507Z,15.23
2022-08-09T08:20:32.474Z,15.19
2022-08-09T08:23:06.468Z,15.23
2022-08-09T08:25:46.604Z,15.27
2022-08-09T08:28:26.210Z,15.53
2022-08-09T08:31:10.427Z,15.72
2022-08-09T08:33:53.865Z,15.93
2022-08-09T08:36:29.721Z,16.00
2022-08-09T08:39:00.474Z,15.95
2022-08-09T08:41:50.799Z,15.91
2022-08-09T08:44:29.208Z,15.83
2022-08-09T08:47:05.099Z,15.94
2022-08-09T08:49:48.272Z,15.98
2022-08-09T08:52:52.500Z,16.02
2022-08-09T08:55:09.801Z,16.13
2022-08-09T08:57:39.440Z,16.00
2022-08-09T09:00:16.809Z,15.86
2022-08-09T09:02:53.413Z,15.81
2022-08-09T09:05:57.396Z,15.98
2022-08-09T09:08:29.778Z,16.04
2022-08-09T09:11:04.355Z,15.96
2022-08-09T09:13:55.107Z,15.90
2022-08-09T09:16:30.644Z,15.94
2022-08-09T09:19:29.407Z,15.98
2022-08-09T09:22:05.314Z,16.36
2022-08-09T09:24:40.438Z,16.55
2022-08-09T09:27:21.987Z,16.66
2022-08-09T09:30:26.261Z,16.83
2022-08-09T09:33:13.686Z,16.95
2022-08-09T09:36:01.971Z,16.99
2022-08-09T09:38:46.588Z,17.35
2022-08-09T09:41:49.234Z,17.67
2022-08-09T09:44:27.607Z,17.59
2022-08-09T09:46:58.978Z,17.42
2022-08-09T09:49:49.984Z,17.02
2022-08-09T09:52:36.385Z,16.81
2022-08-09T09:55:28.808Z,16.90
2022-08-09T09:58:15.703Z,17.05
2022-08-09T10:00:55.124Z,17.50
2022-08-09T10:03:57.368Z,17.62
2022-08-09T10:06:32.217Z,17.43
2022-08-09T10:09:22.882Z,17.32
2022-08-09T10:12:11.937Z,17.28
2022-08-09T10:14:47.965Z,17.52
2022-08-09T10:17:39.764Z,17.52
2022-08-09T10:20:27.555Z,17.77
2022-08-09T10:23:17.142Z,18.74
2022-08-09T10:26:07.072Z,19.38
2022-08-09T10:28:41.107Z,19.24
2022-08-09T10:34:08.977Z,18.66
2022-08-09T10:36:45.242Z,17.93
2022-08-09T10:39:18.271Z,17.57
2022-08-09T10:41:49.560Z,17.54
2022-08-09T10:44:22.236Z,17.36
2022-08-09T10:48:12.291Z,17.40
2022-08-09T10:50:05.758Z,17.62
2022-08-09T10:53:00.225Z,17.85
2022-08-09T10:55:35.821Z,17.83
2022-08-09T10:58:35.162Z,17.84
2022-08-09T11:03:14.279Z,17.95
2022-08-09T11:04:32.712Z,18.29
2022-08-09T11:07:57.728Z,18.58
2022-08-09T11:10:54.878Z,18.75
2022-08-09T11:13:50.661Z,19.19
2022-08-09T11:16:38.100Z,19.95
2022-08-09T11:19:10.738Z,19.14
2022-08-09T11:22:10.363Z,18.94
2022-08-09T11:25:05.525Z,19.06
2022-08-09T11:28:03.715Z,18.58
2022-08-09T11:30:37.626Z,18.62
2022-08-09T11:33:25.729Z,18.82
2022-08-09T11:35:58.568Z,19.26
2022-08-09T11:38:33.067Z,19.69
2022-08-09T11:41:37.515Z,19.84
2022-08-09T11:44:07.941Z,20.23
2022-08-09T11:46:57.153Z,20.64
2022-08-09T11:50:54.982Z,20.64
2022-08-09T11:53:35.507Z,20.38
2022-08-09T11:56:34.315Z,20.18
2022-08-09T11:59:14.332Z,20.56
2022-08-09T12:02:16.953Z,21.02
2022-08-09T12:04:37.138Z,21.30
2022-08-09T12:07:08.891Z,21.35
2022-08-09T12:09:38.044Z,21.75
2022-08-09T12:12:13.099Z,21.43
2022-08-09T12:15:08.066Z,21.06
2022-08-09T12:17:42.143Z,20.86
2022-08-09T12:20:16.212Z,20.82
2022-08-09T12:22:55.966Z,20.87
2022-08-09T12:25:36.211Z,20.76
2022-08-09T12:29:10.555Z,20.56
2022-08-09T12:31:00.868Z,20.49
2022-08-09T12:33:51.366Z,20.36
2022-08-09T12:36:31.915Z,20.52
2022-08-09T12:39:04.293Z,20.97
2022-08-09T12:41:39.757Z,21.16
2022-08-09T12:44:13.026Z,21.26
2022-08-09T12:46:48.803Z,21.27
2022-08-09T12:49:21.482Z,21.13
2022-08-09T12:52:01.204Z,20.81
2022-08-09T12:56:10.641Z,20.67
2022-08-09T12:57:48.413Z,20.60
2022-08-09T13:00:25.068Z,20.61
2022-08-09T13:02:57.322Z,20.51
2022-08-09T13:05:50.846Z,20.74
2022-08-09T13:08:20.960Z,20.96
2022-08-09T13:11:23.081Z,20.96
2022-08-09T13:14:37.897Z,20.52
2022-08-09T13:16:49.545Z,20.51
2022-08-09T13:20:07.058Z,20.38
2022-08-09T13:22:37.160Z,20.63
2022-08-09T13:25:07.843Z,21.14
2022-08-09T13:27:48.586Z,21.27
2022-08-09T13:31:53.495Z,20.76
2022-08-09T13:33:52.372Z,20.56
2022-08-09T13:36:41.839Z,20.64
2022-08-09T13:41:45.639Z,20.90
2022-08-09T13:42:02.290Z,20.81
2022-08-09T13:44:35.114Z,20.88
2022-08-09T13:47:29.828Z,21.13
2022-08-09T13:49:58.024Z,21.34
2022-08-09T13:52:33.917Z,21.06
2022-08-09T13:55:07.214Z,20.52
2022-08-09T13:57:40.182Z,20.76
2022-08-09T14:00:15.491Z,21.16
2022-08-09T14:03:03.636Z,21.45
2022-08-09T14:06:01.185Z,21.06
2022-08-09T14:08:26.870Z,20.68
2022-08-09T14:10:59.416Z,20.24
2022-08-09T14:14:22.255Z,20.28
2022-08-09T14:16:28.858Z,20.11
2022-08-09T14:18:59.475Z,20.16
2022-08-09T14:21:31.849Z,20.38
2022-08-09T14:24:10.494Z,20.09
2022-08-09T14:26:51.831Z,19.76
2022-08-09T14:30:15.123Z,19.57
2022-08-09T14:32:13.254Z,19.24
2022-08-09T14:34:45.475Z,19.08
2022-08-09T14:37:14.806Z,19.13
2022-08-09T14:39:48.563Z,19.25
2022-08-09T14:42:30.069Z,19.63
2022-08-09T14:46:39.558Z,19.81
2022-08-09T14:47:57.187Z,19.65
2022-08-09T14:50:31.412Z,19.65
2022-08-09T14:53:01.791Z,19.60
2022-08-09T14:55:32.147Z,19.53
2022-08-09T14:58:04.496Z,19.46
2022-08-09T15:00:36.444Z,19.29
2022-08-09T15:03:09.011Z,19.27
2022-08-09T15:05:40.223Z,19.21
2022-08-09T15:08:20.471Z,19.34
2022-08-09T15:11:01.238Z,19.44
2022-08-09T15:13:48.644Z,19.42
2022-08-09T15:16:20.701Z,19.45
2022-08-09T15:18:52.438Z,19.52
2022-08-09T15:21:55.996Z,19.42
2022-08-09T15:24:23.332Z,19.29
2022-08-09T15:26:56.282Z,19.31
2022-08-09T15:30:55.673Z,19.21
2022-08-09T15:32:28.761Z,19.14
2022-08-09T15:35:18.469Z,19.00
2022-08-09T15:37:56.956Z,18.91
2022-08-09T15:40:43.814Z,18.70
2022-08-09T15:43:14.215Z,18.64
2022-08-09T15:46:07.734Z,18.63
2022-08-09T15:48:33.926Z,18.61
2022-08-09T15:51:30.463Z,18.48
2022-08-09T15:54:07.082Z,18.34
2022-08-09T15:56:41.643Z,18.31
2022-08-09T15:59:13.757Z,18.16
2022-08-09T16:01:42.857Z,18.00
2022-08-09T16:04:13.711Z,17.85
2022-08-09T16:06:50.292Z,17.73
2022-08-09T16:09:32.329Z,17.64
2022-08-09T16:12:11.326Z,17.52
2022-08-09T16:14:40.758Z,17.49
2022-08-09T16:17:12.096Z,17.48
2022-08-09T16:19:48.975Z,17.49
2022-08-09T16:22:20.412Z,17.42
2022-08-09T16:24:56.936Z,17.31
2022-08-09T16:27:29.894Z,17.26
2022-08-09T16:30:02.612Z,17.28
2022-08-09T16:32:53.272Z,17.22
2022-08-09T16:35:56.100Z,17.19
2022-08-09T16:38:14.815Z,17.12
2022-08-09T16:40:48.078Z,17.11
2022-08-09T16:43:18.124Z,17.07
2022-08-09T16:45:47.992Z,17.01
2022-08-09T16:48:38.348Z,16.94
2022-08-09T16:51:08.640Z,16.84
2022-08-09T16:54:24.888Z,16.69
2022-08-09T16:56:35.250Z,16.63
2022-08-09T16:59:10.696Z,16.57
2022-08-09T17:01:43.777Z,16.52
2022-08-09T17:04:26.058Z,16.47
2022-08-09T17:08:40.189Z,16.41
2022-08-09T17:09:50.615Z,16.31
2022-08-09T17:12:20.105Z,16.24
2022-08-09T17:14:54.945Z,16.13
2022-08-09T17:17:27.925Z,16.04
2022-08-09T17:20:28.416Z,15.95
2022-08-09T17:22:51.872Z,15.87
2022-08-09T17:25:23.886Z,15.78
2022-08-09T17:27:55.212Z,15.71
2022-08-09T17:30:26.442Z,15.62
2022-08-09T17:33:04.884Z,15.51
2022-08-09T17:35:41.279Z,15.45
2022-08-09T17:38:32.497Z,15.44
2022-08-09T17:41:04.834Z,15.45
2022-08-09T17:43:37.161Z,15.44
2022-08-09T17:46:09.450Z,15.43
2022-08-09T17:48:46.540Z,15.38
2022-08-09T17:51:23.169Z,15.37
2022-08-09T17:53:55.233Z,15.29
2022-08-09T17:56:35.188Z,15.20
2022-08-09T17:59:09.527Z,15.15
2022-08-09T18:02:07.803Z,15.18
2022-08-09T18:04:31.382Z,15.16
2022-08-09T18:07:04.453Z,15.06
2022-08-09T18:09:41.402Z,15.07
2022-08-09T18:12:20.056Z,15.16
2022-08-09T18:14:54.860Z,15.17
2022-08-09T18:17:27.612Z,15.17
2022-08-09T18:20:58.071Z,15.12
2022-08-09T18:23:07.609Z,15.02
2022-08-09T18:25:52.798Z,15.06
2022-08-09T18:30:37.959Z,15.00
2022-08-09T18:31:50.999Z,14.91
2022-08-09T18:34:08.964Z,14.81
2022-08-09T18:36:38.291Z,14.74
2022-08-09T18:39:11.184Z,14.75
2022-08-09T18:41:53.197Z,14.75
2022-08-09T18:44:25.721Z,14.76
2022-08-09T18:47:03.489Z,14.66
2022-08-09T18:49:43.678Z,14.60
2022-08-09T18:52:18.576Z,14.64
2022-08-09T18:54:55.120Z,14.62
2022-08-09T18:57:38.455Z,14.59
2022-08-09T19:00:20.291Z,14.60
2022-08-09T19:02:53.906Z,14.58
2022-08-09T19:05:49.013Z,14.59
2022-08-09T19:08:14.162Z,14.49
2022-08-09T19:10:49.312Z,14.46
2022-08-09T19:13:38.439Z,14.43
2022-08-09T19:16:11.221Z,14.44
2022-08-09T19:18:45.426Z,14.42
2022-08-09T19:21:14.992Z,14.42
2022-08-09T19:24:36.557Z,14.43
2022-08-09T19:26:35.165Z,14.41
2022-08-09T19:29:09.685Z,14.36
2022-08-09T19:31:51.304Z,14.31
2022-08-09T19:34:24.843Z,14.29
2022-08-09T19:36:57.665Z,14.34
2022-08-09T19:39:43.865Z,14.31
2022-08-09T19:42:29.329Z,14.30
2022-08-09T19:44:58.698Z,14.26
2022-08-09T19:47:29.298Z,14.19
2022-08-09T19:50:09.844Z,14.18
2022-08-09T19:52:52.130Z,14.29
2022-08-09T19:55:25.668Z,14.28
2022-08-09T19:58:00.165Z,14.27
2022-08-09T20:00:29.529Z,14.21
2022-08-09T20:04:17.307Z,14.17
2022-08-09T20:05:53.043Z,14.18
2022-08-09T20:08:33.248Z,14.19
2022-08-09T20:11:04.983Z,14.20
2022-08-09T20:13:37.244Z,14.22
2022-08-09T20:16:34.501Z,14.18
2022-08-09T20:19:42.114Z,14.14
2022-08-09T20:21:56.894Z,14.09
2022-08-09T20:24:31.731Z,14.04
2022-08-09T20:27:07.947Z,14.04
2022-08-09T20:29:39.248Z,14.01
2022-08-09T20:32:29.333Z,13.99
2022-08-09T20:35:01.796Z,13.93
2022-08-09T20:37:37.941Z,13.96
2022-08-09T20:40:26.263Z,13.90
2022-08-09T20:43:00.384Z,13.85
2022-08-09T20:46:01.452Z,13.80
2022-08-09T20:48:38.060Z,13.77
2022-08-09T20:51:19.472Z,13.74
2022-08-09T20:53:49.121Z,13.71
2022-08-09T20:56:21.847Z,13.66
2022-08-09T20:58:54.568Z,13.63
2022-08-09T21:01:34.953Z,13.65
2022-08-09T21:05:54.030Z,13.63
2022-08-09T21:07:12.984Z,13.62
2022-08-09T21:09:45.768Z,13.65
2022-08-09T21:15:15.379Z,13.67
2022-08-09T21:18:21.965Z,13.64
2022-08-09T21:20:35.822Z,13.62
2022-08-09T21:23:09.296Z,13.70
2022-08-09T21:25:58.843Z,13.78
2022-08-09T21:28:34.635Z,13.88
2022-08-09T21:31:16.563Z,13.91
2022-08-09T21:33:50.812Z,13.96
2022-08-09T21:36:23.309Z,13.99
2022-08-09T21:38:56.792Z,14.01
2022-08-09T21:42:05.155Z,13.95
2022-08-09T21:44:34.309Z,13.88
2022-08-09T21:47:07.729Z,13.89
2022-08-09T21:49:40.586Z,13.88
2022-08-09T21:52:17.515Z,13.85
2022-08-09T21:55:03.207Z,13.77
2022-08-09T21:57:39.616Z,13.71
2022-08-09T22:00:32.643Z,13.67
2022-08-09T22:03:05.790Z,13.71
2022-08-09T22:05:37.499Z,13.73
2022-08-09T22:08:14.605Z,13.80
2022-08-09T22:11:05.040Z,13.85
2022-08-09T22:13:37.188Z,13.83
2022-08-09T22:16:08.305Z,13.83
2022-08-09T22:18:53.198Z,13.85
2022-08-09T22:21:27.354Z,13.93
2022-08-09T22:24:16.614Z,13.94
2022-08-09T22:26:51.819Z,13.90
2022-08-09T22:29:28.994Z,13.88
2022-08-09T22:32:20.001Z,13.90
2022-08-09T22:35:02.180Z,13.92
2022-08-09T22:37:39.945Z,13.90
2022-08-09T22:40:19.886Z,13.91
2022-08-09T22:42:50.880Z,13.82
2022-08-09T22:48:12.787Z,13.79
2022-08-09T22:48:17.655Z,13.80
2022-08-09T22:50:58.495Z,13.76
2022-08-09T22:53:44.154Z,13.76
2022-08-09T22:56:33.319Z,13.79
2022-08-09T22:59:55.796Z,13.80
2022-08-09T23:01:55.023Z,13.79
2022-08-09T23:04:25.565Z,13.73
2022-08-09T23:07:14.208Z,13.72
2022-08-09T23:09:45.431Z,13.69
2022-08-09T23:12:14.416Z,13.66
2022-08-09T23:14:44.825Z,13.71
2022-08-09T23:17:13.729Z,13.72
2022-08-09T23:20:00.680Z,13.68
2022-08-09T23:22:32.756Z,13.57
2022-08-09T23:25:02.325Z,13.52
2022-08-09T23:27:32.646Z,13.53
2022-08-09T23:30:03.255Z,13.53
2022-08-09T23:32:32.982Z,13.53
2022-08-09T23:35:01.984Z,13.49
2022-08-09T23:37:32.141Z,13.58
2022-08-09T23:40:01.317Z,13.68
2022-08-09T23:42:32.474Z,13.73
2022-08-09T23:45:04.125Z,13.80
2022-08-09T23:47:36.277Z,13.87
2022-08-09T23:50:06.195Z,13.93
2022-08-09T23:52:35.246Z,13.99
2022-08-09T23:55:04.864Z,14.00
2022-08-09T23:57:34.254Z,13.99
